Time;durP1;ratioP1;P1;durP2;ratioP2;P2;SDS_P1;SDS_P2;PMS_P1;PMS_P2;Temp;Humidity;BMP_temperature;BMP_pressure;BME280_temperature;BME280_humidity;BME280_pressure;Samples;Min_cycle;Max_cycle;Signal;HPM_P1;HPM_P2
2023/10/29 00:01:28;;;;;;;4.03;2.20;;;15.20;89.70;;;15.42;51.05;97330.34;4949448;28;113571;-91
2023/10/29 00:03:55;;;;;;;4.00;2.00;;;15.10;89.80;;;15.41;51.37;97327.94;4945897;28;125413;-91
2023/10/29 00:06:22;;;;;;;4.10;1.60;;;15.20;89.90;;;15.40;51.40;97320.78;4967553;28;123844;-90
2023/10/29 00:08:48;;;;;;;3.80;1.67;;;17.30;90.90;;;15.40;51.55;97326.34;4958656;28;114448;-90
2023/10/29 00:11:15;;;;;;;3.20;2.10;;;15.10;90.00;;;15.41;51.46;97327.94;4949817;28;113225;-91
2023/10/29 00:13:41;;;;;;;2.63;1.87;;;15.20;90.20;;;15.38;51.54;97329.50;4949025;28;123942;-92
2023/10/29 00:16:08;;;;;;;7.10;2.03;;;16.90;90.80;;;15.37;51.82;97338.25;4957651;28;123251;-91
2023/10/29 00:18:34;;;;;;;3.50;2.33;;;15.20;90.20;;;15.37;51.76;97335.47;4963478;28;113951;-91
2023/10/29 00:21:00;;;;;;;5.10;2.30;;;15.10;90.20;;;15.36;51.70;97339.41;4956303;28;113355;-91
2023/10/29 00:23:27;;;;;;;3.60;2.00;;;15.10;90.20;;;15.31;51.97;97334.97;4951280;28;123504;-90
2023/10/29 00:25:53;;;;;;;3.10;1.60;;;15.10;90.20;;;15.26;51.93;97332.56;4961373;28;123227;-90
2023/10/29 00:28:20;;;;;;;7.57;2.30;;;15.00;90.20;;;15.20;52.35;97334.06;4949456;28;114684;-90
2023/10/29 00:30:47;;;;;;;3.13;2.00;;;15.80;90.60;;;15.17;52.50;97326.47;4951249;28;113371;-92
2023/10/29 00:33:13;;;;;;;5.17;1.83;;;16.00;91.10;;;15.14;52.31;97330.81;4961764;28;124513;-91
2023/10/29 00:35:40;;;;;;;2.23;1.70;;;14.90;90.30;;;15.15;52.69;97331.59;4971684;28;123760;-90
2023/10/29 00:38:07;;;;;;;4.87;2.23;;;16.20;90.90;;;15.10;52.38;97327.19;4969005;28;115258;-92
2023/10/29 00:40:40;;;;;;;2.73;1.93;;;14.90;90.40;;;15.12;52.45;97327.59;4968639;28;114941;-91
2023/10/29 00:43:07;;;;;;;4.77;2.20;;;14.90;90.50;;;15.09;52.68;97328.34;5000752;28;123102;-93
2023/10/29 00:45:34;;;;;;;4.10;1.87;;;15.90;90.90;;;15.08;52.36;97328.75;4983970;28;123524;-91
2023/10/29 00:48:00;;;;;;;3.53;2.00;;;16.60;91.30;;;15.07;52.38;97329.91;4987209;28;113353;-90
2023/10/29 00:50:27;;;;;;;4.93;2.13;;;16.00;91.00;;;15.02;52.37;97333.84;4968764;28;113221;-91
2023/10/29 00:52:53;;;;;;;4.93;1.83;;;14.80;90.50;;;15.01;52.05;97326.66;4964598;28;124618;-91
2023/10/29 00:55:20;;;;;;;3.27;2.20;;;14.80;90.40;;;14.99;52.32;97323.47;4968401;28;124049;-92
2023/10/29 00:57:46;;;;;;;6.47;1.97;;;15.00;90.50;;;14.97;52.21;97323.84;4964575;28;114127;-90
2023/10/29 01:00:17;;;;;;;6.80;1.80;;;14.80;90.40;;;14.97;52.32;97321.06;4954358;28;114027;-91
2023/10/29 01:02:44;;;;;;;3.37;1.80;;;14.80;90.40;;;14.97;52.01;97307.16;4962127;28;124024;-90
2023/10/29 01:05:16;;;;;;;2.77;1.60;;;13.60;89.80;;;14.98;51.77;97305.97;4968387;28;123734;-91
2023/10/29 01:07:42;;;;;;;3.50;1.83;;;14.70;90.40;;;14.97;52.00;97296.03;4965123;28;114215;-90
2023/10/29 01:10:10;;;;;;;2.30;1.50;;;14.70;90.30;;;14.96;51.99;97280.53;4964906;28;113821;-90
2023/10/29 01:12:38;;;;;;;4.23;1.90;;;14.70;90.30;;;14.97;51.99;97301.59;4963329;28;124833;-90
2023/10/29 01:15:05;;;;;;;3.10;1.80;;;16.50;91.10;;;14.98;51.91;97294.84;4956537;28;124092;-92
2023/10/29 01:17:34;;;;;;;4.20;1.90;;;13.50;89.60;;;14.98;52.08;97310.75;4969332;28;113589;-91
2023/10/29 01:20:06;;;;;;;3.90;1.70;;;14.70;90.30;;;14.96;52.13;97316.69;4966989;28;115155;-91
2023/10/29 01:22:33;;;;;;;3.10;1.80;;;14.70;90.30;;;14.93;52.00;97295.19;4970689;28;123946;-90
2023/10/29 01:25:00;;;;;;;4.03;1.90;;;16.20;91.30;;;14.90;51.94;97298.72;4966541;28;123552;-90
2023/10/29 01:27:27;;;;;;;4.63;1.53;;;15.90;90.90;;;14.91;51.66;97292.00;4957672;28;114530;-91
2023/10/29 01:29:56;;;;;;;2.93;1.63;;;15.50;90.60;;;14.94;51.69;97282.91;4968474;28;114931;-91
2023/10/29 01:32:22;;;;;;;5.80;2.90;;;14.60;90.10;;;14.96;51.49;97279.72;4966586;28;123324;-92
2023/10/29 01:34:50;;;;;;;4.30;1.73;;;14.60;90.00;;;14.96;51.42;97263.03;4966823;28;124219;-90
2023/10/29 01:37:16;;;;;;;2.87;1.47;;;13.40;89.00;;;14.99;51.36;97260.31;4967855;28;114761;-90
2023/10/29 01:39:43;;;;;;;2.83;1.40;;;14.70;90.10;;;15.00;51.46;97267.47;4968201;28;113963;-91
2023/10/29 01:42:11;;;;;;;4.40;1.77;;;15.90;90.50;;;15.02;51.24;97255.97;4965086;28;123262;-90
2023/10/29 01:44:45;;;;;;;2.00;1.43;;;15.70;90.40;;;15.05;51.04;97248.84;4988917;28;122234;-91
2023/10/29 01:47:12;;;;;;;5.60;1.90;;;14.70;89.90;;;15.06;51.03;97250.44;4963813;28;114387;-91
2023/10/29 01:49:40;;;;;;;3.70;2.00;;;16.50;90.70;;;15.07;51.09;97246.47;4968542;28;114443;-90
2023/10/29 01:52:07;;;;;;;1.70;1.30;;;16.30;90.50;;;15.09;51.17;97249.66;4985171;28;122247;-90
2023/10/29 01:54:34;;;;;;;1.93;1.30;;;16.10;90.50;;;15.11;51.14;97236.97;4956520;28;123958;-91
2023/10/29 01:57:00;;;;;;;2.53;1.40;;;14.80;89.90;;;15.13;51.29;97244.97;4968151;28;114206;-91
2023/10/29 01:59:30;;;;;;;2.83;1.50;;;14.80;89.90;;;15.16;51.39;97249.75;4966048;28;114033;-90
2023/10/29 02:01:57;;;;;;;2.07;1.57;;;16.00;90.40;;;15.17;51.20;97243.00;4985896;28;123602;-91
2023/10/29 02:04:27;;;;;;;2.30;1.63;;;14.90;90.00;;;15.19;51.46;97244.22;4966827;28;123042;-91
2023/10/29 02:06:54;;;;;;;3.20;1.77;;;15.70;90.40;;;15.21;51.39;97246.63;4970756;28;113938;-90
2023/10/29 02:09:20;;;;;;;4.73;1.83;;;14.90;90.10;;;15.21;51.44;97229.94;4970147;28;113065;-91
2023/10/29 02:11:47;;;;;;;3.00;1.43;;;14.90;90.00;;;15.22;51.31;97228.75;4951250;28;124584;-89
2023/10/29 02:14:16;;;;;;;4.60;1.73;;;14.90;90.00;;;15.22;51.27;97226.75;4964251;28;123565;-91
2023/10/29 02:16:42;;;;;;;2.53;1.40;;;16.00;90.40;;;15.21;50.66;97219.63;4963038;28;116483;-90
2023/10/29 02:19:09;;;;;;;4.03;1.50;;;14.90;89.80;;;15.23;50.52;97205.31;4963675;28;114976;-90
2023/10/29 02:21:38;;;;;;;1.73;1.27;;;14.90;89.40;;;15.23;50.45;97216.44;4956158;28;123020;-92
2023/10/29 02:24:04;;;;;;;2.33;1.33;;;14.90;89.20;;;15.23;50.08;97197.78;4970799;28;124120;-90
2023/10/29 02:26:33;;;;;;;4.90;1.27;;;14.90;88.80;;;15.22;49.99;97207.28;4973965;28;114069;-91
2023/10/29 02:29:02;;;;;;;2.40;1.40;;;15.80;89.30;;;15.23;49.48;97205.31;4971158;28;114088;-90
2023/10/29 02:31:29;;;;;;;1.70;1.10;;;16.90;90.00;;;15.24;49.42;97201.34;4971960;28;123919;-90
2023/10/29 02:33:55;;;;;;;3.97;1.43;;;16.40;89.40;;;15.27;49.43;97199.78;4971098;28;123054;-91
2023/10/29 02:36:22;;;;;;;3.80;1.63;;;14.90;87.90;;;15.27;49.39;97206.16;4966234;28;113951;-93
2023/10/29 02:38:48;;;;;;;2.23;1.47;;;14.90;87.60;;;15.28;48.95;97206.94;4964822;28;113974;-90
2023/10/29 02:41:15;;;;;;;2.87;1.40;;;15.90;88.20;;;15.30;48.92;97210.16;4970221;28;123195;-90
2023/10/29 02:43:44;;;;;;;3.00;1.60;;;14.90;87.10;;;15.30;48.68;97210.94;4970871;28;123704;-90
2023/10/29 02:46:10;;;;;;;2.10;1.40;;;15.00;86.90;;;15.32;48.31;97208.59;4960269;28;114186;-89
2023/10/29 02:48:37;;;;;;;4.80;1.30;;;14.90;86.10;;;15.35;48.26;97215.38;4971219;28;114014;-90
2023/10/29 02:51:10;;;;;;;2.07;1.30;;;17.10;88.10;;;15.35;48.03;97205.03;4970481;28;122998;-90
2023/10/29 02:53:38;;;;;;;2.50;1.53;;;13.30;84.30;;;15.36;48.15;97211.41;4965895;28;123592;-91
2023/10/29 02:56:05;;;;;;;2.10;1.20;;;15.90;86.70;;;15.38;48.42;97220.16;4966938;28;114240;-90
2023/10/29 02:58:31;;;;;;;1.77;1.17;;;15.00;85.90;;;15.38;48.19;97209.84;4973729;28;113844;-90
2023/10/29 03:01:09;;;;;;;2.67;1.60;;;15.00;85.80;;;15.38;47.82;97206.25;4966303;28;123848;-92
2023/10/29 03:03:38;;;;;;;2.43;1.57;;;16.80;87.20;;;15.37;48.20;97193.53;4972524;28;124176;-91
2023/10/29 03:06:08;;;;;;;3.40;1.80;;;15.00;85.80;;;15.39;47.55;97193.94;4970921;28;115342;-90
2023/10/29 03:08:36;;;;;;;2.23;1.30;;;15.00;85.00;;;15.38;47.89;97204.25;4971457;28;114788;-90
2023/10/29 03:11:05;;;;;;;2.07;1.40;;;15.00;85.20;;;15.38;47.72;97201.47;4968503;28;123920;-90
2023/10/29 03:13:34;;;;;;;1.80;1.30;;;15.00;85.40;;;15.38;47.63;97207.03;4970337;28;122081;-90
2023/10/29 03:16:00;;;;;;;2.27;1.20;;;15.00;84.80;;;15.35;47.51;97199.47;4968508;28;114296;-92
2023/10/29 03:18:31;;;;;;;2.37;1.70;;;15.50;85.60;;;15.34;47.47;97197.88;4954058;28;113474;-90
2023/10/29 03:20:58;;;;;;;2.40;1.70;;;16.00;85.90;;;15.34;47.77;97183.13;4962034;28;124105;-91
2023/10/29 03:23:24;;;;;;;2.03;1.60;;;13.70;83.60;;;15.32;47.38;97186.31;4967936;28;124236;-91
2023/10/29 03:26:00;;;;;;;1.80;1.00;;;16.30;85.90;;;15.31;47.47;97189.47;4968570;28;114430;-90
2023/10/29 03:28:26;;;;;;;3.03;1.63;;;15.00;84.70;;;15.31;47.71;97195.03;4967670;28;113999;-91
2023/10/29 03:30:53;;;;;;;2.23;1.40;;;15.00;84.60;;;15.28;47.65;97196.59;4968555;28;124121;-92
2023/10/29 03:33:19;;;;;;;5.00;1.50;;;15.10;84.60;;;15.27;47.55;97192.25;4967846;28;123841;-92
2023/10/29 03:35:48;;;;;;;1.80;1.20;;;15.00;84.50;;;15.27;47.52;97197.00;4964460;28;114186;-92
2023/10/29 03:38:14;;;;;;;1.70;1.20;;;15.40;84.80;;;15.27;47.55;97199.78;4964143;28;114185;-91
2023/10/29 03:40:41;;;;;;;3.33;1.40;;;15.00;84.30;;;15.25;47.33;97197.38;4968621;28;123709;-91
2023/10/29 03:43:08;;;;;;;1.70;1.30;;;16.90;86.00;;;15.23;47.54;97210.88;4968320;28;123583;-91
2023/10/29 03:45:39;;;;;;;1.43;1.10;;;14.90;83.90;;;15.21;47.41;97216.03;4963313;28;114386;-90
2023/10/29 03:48:06;;;;;;;5.90;1.87;;;15.00;84.00;;;15.21;47.21;97216.03;4968448;28;113880;-91
2023/10/29 03:50:32;;;;;;;2.80;1.43;;;14.90;83.80;;;15.18;47.40;97208.47;4968084;28;124102;-91
2023/10/29 03:52:59;;;;;;;2.90;1.20;;;14.90;84.30;;;15.18;47.30;97208.47;4968419;28;124047;-91
2023/10/29 03:55:26;;;;;;;2.80;1.30;;;16.20;85.30;;;15.17;47.32;97209.63;4968026;28;115488;-92
2023/10/29 03:57:54;;;;;;;2.97;1.40;;;16.80;86.10;;;15.15;47.66;97214.75;4970667;28;113853;-90
2023/10/29 04:00:24;;;;;;;2.23;1.43;;;16.80;86.10;;;15.12;47.65;97213.53;4968035;28;124163;-89
2023/10/29 04:02:50;;;;;;;2.60;1.37;;;14.90;84.30;;;15.10;47.80;97220.66;4986637;28;123319;-90
2023/10/29 04:05:19;;;;;;;4.20;1.30;;;14.80;84.30;;;15.10;47.90;97206.75;4968155;28;114477;-91
2023/10/29 04:07:45;;;;;;;2.03;1.10;;;14.80;84.40;;;15.06;48.00;97212.28;4928321;28;1166675;-91
2023/10/29 04:10:14;;;;;;;3.37;1.33;;;15.10;84.80;;;15.06;48.13;97209.50;4965399;28;123180;-92
2023/10/29 04:12:41;;;;;;;2.13;1.20;;;14.80;84.60;;;15.05;48.29;97209.91;4968498;28;123197;-90
2023/10/29 04:15:12;;;;;;;3.10;1.70;;;14.80;84.70;;;15.06;48.10;97211.50;4964738;28;114467;-90
2023/10/29 04:17:38;;;;;;;2.60;1.07;;;14.80;84.70;;;15.06;48.14;97205.94;4964937;28;113619;-91
2023/10/29 04:20:06;;;;;;;1.77;1.47;;;15.80;85.60;;;15.05;48.07;97209.91;4968852;28;124016;-91
2023/10/29 04:22:33;;;;;;;3.77;1.90;;;14.80;84.40;;;15.05;48.05;97201.56;4971906;28;122450;-89
2023/10/29 04:25:02;;;;;;;3.20;1.67;;;14.80;84.30;;;15.05;47.73;97196.00;4967814;28;114345;-91
2023/10/29 04:27:30;;;;;;;3.50;1.47;;;16.70;86.20;;;15.06;47.58;97197.59;4969243;28;114072;-91
2023/10/29 04:29:57;;;;;;;1.47;1.10;;;16.70;86.10;;;15.05;47.91;97187.66;4969024;28;124240;-91
2023/10/29 04:32:26;;;;;;;3.50;1.20;;;16.20;85.30;;;15.05;47.62;97187.66;4968875;28;123896;-91
2023/10/29 04:34:53;;;;;;;2.43;1.23;;;14.80;84.00;;;15.07;47.20;97188.06;4969128;28;114271;-91
2023/10/29 04:37:19;;;;;;;2.20;1.50;;;14.80;83.80;;;15.09;47.16;97177.34;4967686;28;113952;-90
2023/10/29 04:39:50;;;;;;;2.03;1.20;;;16.00;84.50;;;15.11;47.10;97175.00;4969176;28;123381;-90
2023/10/29 04:42:16;;;;;;;1.70;1.20;;;14.80;83.50;;;15.12;47.27;97187.72;4968393;28;124644;-91
2023/10/29 04:44:43;;;;;;;3.30;1.40;;;14.80;83.20;;;15.10;46.72;97181.72;4967418;28;115171;-91
2023/10/29 04:47:09;;;;;;;1.97;1.10;;;14.90;82.80;;;15.13;46.91;97178.19;4954060;28;115050;-92
2023/10/29 04:49:38;;;;;;;1.20;1.00;;;14.10;82.00;;;15.13;46.59;97183.75;4968747;28;125201;-90
2023/10/29 04:52:05;;;;;;;2.33;1.20;;;14.80;82.50;;;15.15;46.47;97176.63;4968226;28;123959;-90
2023/10/29 04:54:31;;;;;;;1.67;1.10;;;14.80;82.30;;;15.16;46.37;97175.44;4968553;28;114300;-91
2023/10/29 04:57:00;;;;;;;2.00;1.50;;;16.60;84.00;;;15.19;46.13;97176.66;4954463;28;113312;-91
2023/10/29 04:59:29;;;;;;;1.83;1.17;;;16.80;83.80;;;15.20;45.96;97175.47;4968264;28;123879;-90
2023/10/29 05:01:58;;;;;;;1.87;1.20;;;16.20;82.80;;;15.21;45.68;97169.53;4987039;28;124096;-91
2023/10/29 05:04:24;;;;;;;1.20;1.00;;;16.30;82.80;;;15.23;45.69;97174.69;4971094;28;114138;-92
2023/10/29 05:06:51;;;;;;;1.80;1.13;;;14.90;81.30;;;15.23;45.46;97177.47;4971401;28;114423;-90
2023/10/29 05:09:18;;;;;;;2.40;1.40;;;14.90;81.20;;;15.25;45.69;97158.44;4968643;28;124961;-91
2023/10/29 05:11:45;;;;;;;3.43;1.30;;;17.10;83.30;;;15.28;46.13;97165.22;4960055;28;123640;-91
2023/10/29 05:14:11;;;;;;;1.83;1.17;;;14.90;81.20;;;15.28;45.63;97154.06;4968079;28;114546;-91
2023/10/29 05:16:38;;;;;;;2.20;1.00;;;15.00;81.20;;;15.29;45.70;97150.94;4961542;28;113947;-90
2023/10/29 05:19:04;;;;;;;1.33;0.87;;;14.90;81.30;;;15.32;45.69;97152.94;4961321;28;123341;-90
2023/10/29 05:21:31;;;;;;;1.83;1.17;;;16.30;82.40;;;15.32;45.48;97143.78;4965478;28;123011;-92
2023/10/29 05:23:58;;;;;;;2.83;1.20;;;15.00;81.10;;;15.32;45.70;97154.94;4968760;28;114438;-91
2023/10/29 05:26:28;;;;;;;1.90;1.10;;;15.00;81.20;;;15.31;45.50;97140.19;4968558;28;113833;-90
2023/10/29 05:28:54;;;;;;;2.37;1.10;;;15.70;81.50;;;15.29;45.84;97150.94;4968261;28;124010;-90
2023/10/29 05:31:20;;;;;;;1.70;1.10;;;14.90;80.90;;;15.29;45.75;97164.84;4999663;28;123823;-91
2023/10/29 05:33:47;;;;;;;1.87;1.30;;;14.90;80.90;;;15.28;45.75;97143.75;4967861;28;114901;-91
2023/10/29 05:36:14;;;;;;;2.60;1.17;;;14.90;80.80;;;15.28;45.46;97152.09;4968122;28;114933;-90
2023/10/29 05:38:40;;;;;;;1.80;1.40;;;15.00;80.90;;;15.27;45.43;97150.50;4967941;28;123396;-92
2023/10/29 05:41:07;;;;;;;2.80;1.43;;;16.10;81.70;;;15.24;45.44;97148.50;4968036;28;123670;-90
2023/10/29 05:43:34;;;;;;;2.93;1.27;;;15.80;81.30;;;15.23;45.61;97149.66;4968067;28;114275;-90
2023/10/29 05:46:00;;;;;;;5.03;1.40;;;14.90;80.40;;;15.22;45.55;97162.78;4966208;28;113286;-91
2023/10/29 05:48:27;;;;;;;1.90;1.20;;;16.00;81.50;;;15.21;45.46;97158.41;4967080;28;123994;-91
2023/10/29 05:50:54;;;;;;;1.60;0.90;;;16.30;81.80;;;15.22;45.31;97156.41;4968227;28;123715;-89
2023/10/29 05:53:20;;;;;;;4.13;1.47;;;15.00;80.40;;;15.23;45.33;97161.59;5002575;27;113910;-91
2023/10/29 05:55:47;;;;;;;1.30;1.10;;;16.80;82.00;;;15.24;45.23;97146.50;4969449;28;113481;-90
2023/10/29 05:58:13;;;;;;;1.87;1.10;;;14.90;80.10;;;15.24;45.15;97140.94;4966781;28;124592;-90
2023/10/29 06:00:40;;;;;;;2.40;1.20;;;14.90;80.10;;;15.27;45.41;97150.50;4967744;28;123856;-92
2023/10/29 06:03:06;;;;;;;1.60;1.10;;;15.90;81.20;;;15.32;45.42;97157.72;4967180;28;114408;-90
2023/10/29 06:05:32;;;;;;;1.87;1.10;;;15.00;80.50;;;15.35;45.61;97149.38;4968250;28;113179;-90
2023/10/29 06:07:59;;;;;;;1.87;1.10;;;15.00;80.50;;;15.39;45.59;97152.19;4968727;28;123866;-90
2023/10/29 06:10:28;;;;;;;1.70;1.10;;;15.80;81.40;;;15.43;45.87;97158.59;4961499;28;123870;-91
2023/10/29 06:12:59;;;;;;;1.70;1.37;;;15.10;81.10;;;15.42;46.28;97162.53;4966741;28;113544;-91
2023/10/29 06:15:31;;;;;;;1.90;1.40;;;15.10;81.50;;;15.38;46.59;97168.09;4972766;28;113176;-91
2023/10/29 06:17:58;;;;;;;2.60;1.50;;;15.10;81.80;;;15.39;46.74;97172.50;4950200;28;123901;-91
2023/10/29 06:20:26;;;;;;;2.00;1.37;;;15.10;82.00;;;15.40;46.84;97181.63;4967535;28;124041;-92
2023/10/29 06:22:55;;;;;;;5.73;1.37;;;15.90;83.10;;;15.40;47.01;97185.22;4967265;28;115812;-91
2023/10/29 06:25:24;;;;;;;3.53;1.40;;;17.40;84.70;;;15.42;46.96;97182.84;4967337;28;113917;-91
2023/10/29 06:27:51;;;;;;;1.80;1.30;;;15.10;82.60;;;15.43;47.05;97186.44;4966444;28;124437;-91
2023/10/29 06:30:17;;;;;;;1.63;1.13;;;16.60;84.10;;;15.44;46.54;97186.03;4965870;28;123709;-90
2023/10/29 06:32:45;;;;;;;1.80;1.20;;;15.10;82.40;;;15.48;46.66;97185.28;4968039;28;114286;-91
2023/10/29 06:35:12;;;;;;;4.77;1.57;;;15.20;82.40;;;15.50;46.77;97200.41;4966200;28;114063;-90
2023/10/29 06:37:39;;;;;;;2.30;1.60;;;15.20;82.30;;;15.52;46.85;97197.22;4967319;28;123934;-91
2023/10/29 06:40:07;;;;;;;3.40;1.50;;;15.20;82.70;;;15.53;47.10;97213.56;4967731;28;123143;-91
2023/10/29 06:42:33;;;;;;;2.97;1.50;;;15.20;82.90;;;15.54;47.23;97214.34;4964419;28;114554;-91
2023/10/29 06:45:02;;;;;;;1.80;1.37;;;16.40;84.30;;;15.57;46.62;97219.16;4965784;28;114060;-91
2023/10/29 06:47:29;;;;;;;2.53;1.73;;;15.20;82.80;;;15.57;46.71;97222.72;4965045;28;124528;-91
2023/10/29 06:49:55;;;;;;;2.23;1.37;;;17.50;84.70;;;15.58;46.49;97226.31;4966123;28;123929;-90
2023/10/29 06:52:24;;;;;;;2.57;1.50;;;15.20;82.20;;;15.60;46.71;97232.28;4967448;28;113998;-91
2023/10/29 06:54:50;;;;;;;3.00;1.63;;;15.30;82.40;;;15.62;46.58;97244.66;4949586;28;113299;-89
2023/10/29 06:57:17;;;;;;;2.90;1.40;;;15.30;82.40;;;15.65;46.61;97245.88;4953130;28;124101;-89
2023/10/29 06:59:46;;;;;;;1.80;1.27;;;15.30;82.20;;;15.68;46.51;97264.59;4966894;28;123082;-89
2023/10/29 07:02:14;;;;;;;3.60;1.40;;;15.30;82.20;;;15.71;46.48;97252.69;4954341;28;114270;-89
2023/10/29 07:04:40;;;;;;;2.10;1.53;;;15.30;82.50;;;15.77;46.45;97267.88;4952711;28;114033;-89
2023/10/29 07:07:11;;;;;;;3.43;1.63;;;15.40;82.60;;;15.80;46.43;97258.75;4956129;28;123793;-88
2023/10/29 07:09:37;;;;;;;1.83;1.30;;;15.40;82.50;;;15.86;46.28;97259.22;4952960;28;125327;-88
2023/10/29 07:12:04;;;;;;;2.10;1.10;;;15.70;82.70;;;15.89;46.31;97262.00;4956751;28;116304;-89
2023/10/29 07:14:32;;;;;;;2.70;1.07;;;15.50;82.50;;;15.93;46.00;97269.59;4971976;28;113696;-89
2023/10/29 07:16:58;;;;;;;1.20;1.10;;;15.50;82.10;;;15.94;45.88;97271.22;4955831;28;124090;-90
2023/10/29 07:19:27;;;;;;;2.57;1.30;;;15.50;81.90;;;15.96;45.71;97268.81;4952354;28;123732;-90
2023/10/29 07:21:54;;;;;;;2.00;1.30;;;16.60;82.60;;;15.97;45.61;97276.00;4953236;28;113918;-90
2023/10/29 07:24:20;;;;;;;2.83;1.20;;;15.50;81.30;;;16.00;45.58;97269.66;4974026;28;114224;-92
2023/10/29 07:26:47;;;;;;;1.37;1.20;;;15.60;81.40;;;16.02;45.48;97272.88;4951386;28;124033;-90
2023/10/29 07:29:13;;;;;;;1.20;1.10;;;16.50;82.30;;;16.05;45.71;97272.09;4949128;28;123958;-88
2023/10/29 07:31:40;;;;;;;1.30;1.03;;;15.60;81.40;;;16.07;45.52;97264.94;4950386;28;114306;-89
2023/10/29 07:34:06;;;;;;;1.77;1.00;;;15.70;82.10;;;16.11;45.41;97276.09;4950644;28;114053;-89
2023/10/29 07:36:33;;;;;;;2.33;1.10;;;15.80;81.20;;;16.13;45.34;97274.53;4951803;28;123969;-89
2023/10/29 07:38:59;;;;;;;1.40;1.10;;;17.40;82.80;;;16.16;45.32;97278.53;4955749;28;122901;-88
2023/10/29 07:41:29;;;;;;;2.60;1.10;;;15.70;80.90;;;16.17;45.31;97280.13;4959245;28;113986;-89
2023/10/29 07:43:57;;;;;;;3.73;1.20;;;15.80;81.00;;;16.17;45.40;97282.91;4956424;28;113233;-90
2023/10/29 07:46:24;;;;;;;3.20;1.60;;;15.80;80.90;;;16.16;45.22;97286.91;4960955;28;124368;-89
2023/10/29 07:48:50;;;;;;;4.47;1.57;;;15.80;80.70;;;16.18;45.38;97275.38;4951615;28;123910;-90
2023/10/29 07:51:17;;;;;;;3.47;1.30;;;15.80;80.90;;;16.19;45.18;97277.75;4953717;28;114380;-89
2023/10/29 07:53:44;;;;;;;1.80;1.17;;;15.90;80.80;;;16.21;45.20;97278.19;4965794;28;111562;-89
2023/10/29 07:56:16;;;;;;;3.30;1.57;;;15.80;80.70;;;16.23;45.34;97284.19;4956688;28;123899;-90
2023/10/29 07:58:44;;;;;;;2.00;1.13;;;15.80;80.90;;;16.26;45.23;97294.53;4954384;28;123573;-89
2023/10/29 08:01:15;;;;;;;1.63;1.10;;;15.90;81.10;;;16.30;45.30;97294.56;4965227;28;115087;-89
2023/10/29 08:03:43;;;;;;;2.00;0.93;;;15.90;81.10;;;16.32;45.61;97297.75;4952015;28;114722;-92
2023/10/29 08:06:12;;;;;;;1.60;1.17;;;16.00;81.20;;;16.34;45.34;97301.75;4963967;28;123043;-93
2023/10/29 08:08:39;;;;;;;2.17;1.20;;;18.20;83.40;;;16.38;45.94;97321.28;4969859;28;123902;-90
2023/10/29 08:11:20;;;;;;;3.20;1.10;;;16.00;81.40;;;16.44;45.76;97332.88;4960598;28;114336;-94
2023/10/29 08:13:47;;;;;;;3.73;1.50;;;16.10;81.70;;;16.49;45.92;97324.94;4944547;28;112321;-93
2023/10/29 08:16:15;;;;;;;2.37;1.37;;;16.10;81.70;;;16.51;45.79;97324.56;4948584;28;124046;-90
2023/10/29 08:18:42;;;;;;;1.90;1.20;;;16.80;82.50;;;16.52;45.77;97312.22;4949512;28;123047;-91
2023/10/29 08:21:08;;;;;;;3.00;1.43;;;16.20;82.00;;;16.54;45.93;97316.22;4930274;28;114564;-91
2023/10/29 08:23:35;;;;;;;3.33;1.33;;;16.80;82.40;;;16.53;45.66;97323.00;4961752;28;114732;-90
2023/10/29 08:26:02;;;;;;;1.40;1.07;;;16.10;81.70;;;16.55;45.79;97329.00;4942629;28;123892;-92
2023/10/29 08:28:29;;;;;;;2.43;1.60;;;16.20;81.80;;;16.60;46.11;97330.59;4931690;28;123872;-92
2023/10/29 08:30:56;;;;;;;1.37;1.07;;;16.20;81.80;;;16.66;46.04;97328.28;4966249;28;113261;-92
2023/10/29 08:33:22;;;;;;;4.13;1.73;;;16.30;82.20;;;16.77;45.98;97340.31;4932602;28;113414;-90
2023/10/29 08:35:49;;;;;;;3.27;1.73;;;16.30;82.40;;;16.83;45.97;97344.31;4946126;28;124482;-91
2023/10/29 08:38:15;;;;;;;2.27;1.40;;;16.40;82.50;;;16.88;45.42;97343.97;4925226;28;122705;-92
2023/10/29 08:40:42;;;;;;;1.33;1.10;;;16.40;82.30;;;16.93;45.60;97348.38;4947051;28;114479;-93
2023/10/29 08:43:08;;;;;;;1.93;1.10;;;16.50;82.20;;;16.96;45.66;97350.38;4935545;28;113382;-93
2023/10/29 08:45:35;;;;;;;2.13;1.20;;;15.60;81.20;;;16.98;45.74;97362.75;4963047;28;123668;-92
2023/10/29 08:48:01;;;;;;;2.20;1.40;;;16.60;82.10;;;16.99;45.64;97357.97;4973035;28;123060;-92
2023/10/29 08:50:29;;;;;;;3.63;1.30;;;16.60;82.00;;;17.04;45.82;97363.19;4966741;28;115166;-93
2023/10/29 08:52:56;;;;;;;1.60;1.20;;;16.60;82.10;;;17.07;45.71;97354.03;4970061;28;113912;-90
2023/10/29 08:55:24;;;;;;;2.23;1.30;;;16.70;82.20;;;17.08;45.60;97343.66;4980503;28;123334;-91
2023/10/29 08:57:50;;;;;;;2.17;1.40;;;16.70;82.10;;;17.09;45.71;97351.66;4960016;28;123972;-91
2023/10/29 09:00:18;;;;;;;1.60;1.20;;;17.60;82.90;;;17.12;45.81;97338.91;4963358;28;114292;-90
2023/10/29 09:02:44;;;;;;;2.83;1.33;;;16.70;82.30;;;17.14;45.84;97328.94;4961029;28;114038;-95
2023/10/29 09:05:11;;;;;;;3.10;1.30;;;16.80;82.30;;;17.19;45.78;97322.16;4940933;28;123253;-93
2023/10/29 09:07:38;;;;;;;2.10;1.67;;;16.80;82.30;;;17.22;45.71;97316.63;4938126;28;122667;-90
2023/10/29 09:10:05;;;;;;;2.00;1.10;;;17.20;82.70;;;17.28;45.74;97311.47;4963545;28;115019;-94
2023/10/29 09:12:31;;;;;;;2.87;1.40;;;16.90;82.40;;;17.32;45.84;97311.47;4959326;28;112837;-94
2023/10/29 09:15:01;;;;;;;2.43;1.50;;;16.90;82.40;;;17.33;45.74;97311.06;4963977;28;123220;-91
2023/10/29 09:17:28;;;;;;;2.23;1.10;;;17.00;82.50;;;17.35;45.74;97307.88;4960548;28;124337;-87
2023/10/29 09:19:55;;;;;;;4.80;1.70;;;17.00;82.50;;;17.37;45.83;97311.06;4954047;28;113546;-89
2023/10/29 09:22:21;;;;;;;1.80;1.20;;;17.00;82.30;;;17.39;45.63;97314.28;4954912;28;113756;-95
2023/10/29 09:24:52;;;;;;;2.43;1.13;;;17.00;82.20;;;17.40;45.71;97310.28;4965486;28;123209;-94
2023/10/29 09:27:18;;;;;;;2.20;1.23;;;17.10;82.30;;;17.40;45.93;97297.13;4971596;28;123081;-94
2023/10/29 09:29:45;;;;;;;2.13;1.50;;;17.10;82.40;;;17.42;45.72;97297.53;4968040;28;115194;-94
2023/10/29 09:32:15;;;;;;;3.33;1.30;;;17.10;82.20;;;17.44;45.40;97288.78;4951719;28;114802;-94
2023/10/29 09:34:42;;;;;;;2.50;1.50;;;17.10;82.10;;;17.44;45.59;97285.97;4957065;28;123921;-94
2023/10/29 09:37:08;;;;;;;2.00;1.20;;;17.10;82.00;;;17.44;45.69;97277.59;4954712;28;123041;-94
2023/10/29 09:39:35;;;;;;;1.40;0.97;;;17.10;82.00;;;17.47;45.72;97276.81;4968008;28;115858;-92
2023/10/29 09:42:08;;;;;;;2.87;1.30;;;17.20;82.10;;;17.51;45.61;97272.00;4958338;28;115003;-93
2023/10/29 09:44:40;;;;;;;3.53;1.57;;;17.20;82.10;;;17.53;45.67;97275.22;4958855;28;122018;-94
2023/10/29 09:47:19;;;;;;;5.33;1.63;;;17.20;82.20;;;17.56;45.74;97282.00;4957377;28;123169;-92
2023/10/29 09:49:46;;;;;;;3.40;1.53;;;17.20;82.20;;;17.58;45.69;97277.63;4952457;28;114335;-92
2023/10/29 09:52:13;;;;;;;1.60;1.20;;;17.20;82.30;;;17.60;45.93;97272.44;4940221;28;113055;-92
2023/10/29 09:54:40;;;;;;;3.20;1.40;;;17.30;82.50;;;17.63;45.80;97274.44;5004747;28;123125;-93
2023/10/29 09:57:07;;;;;;;2.00;1.20;;;17.30;82.60;;;17.66;45.85;97262.47;4968281;28;124146;-92
2023/10/29 09:59:36;;;;;;;1.53;1.30;;;17.30;82.70;;;17.69;46.07;97266.47;4965683;28;114097;-92
2023/10/29 10:02:03;;;;;;;2.30;1.40;;;17.30;82.90;;;17.73;45.97;97258.09;4966341;28;114088;-92
2023/10/29 10:04:29;;;;;;;3.30;1.53;;;17.30;83.00;;;17.72;45.96;97251.69;4959057;28;123195;-92
2023/10/29 10:06:59;;;;;;;2.60;1.60;;;17.30;82.80;;;17.69;46.04;97248.91;4964934;28;123747;-92
2023/10/29 10:09:55;;;;;;;2.10;1.50;;;17.40;83.10;;;17.65;46.26;97243.31;4971831;28;114208;-91
2023/10/29 10:12:24;;;;;;;2.97;2.10;;;17.30;83.20;;;17.62;46.45;97236.56;4951968;28;113713;-91
2023/10/29 10:14:52;;;;;;;3.97;1.93;;;17.30;83.20;;;17.60;46.55;97252.91;4958715;28;124227;-94